Time;durP1;ratioP1;P1;durP2;ratioP2;P2;SDS_P1;SDS_P2;PMS_P1;PMS_P2;Temp;Humidity;BMP_temperature;BMP_pressure;BME280_temperature;BME280_humidity;BME280_pressure;Samples;Min_cycle;Max_cycle;Signal;HPM_P1;HPM_P2
2022/06/03 00:02:37;;;;;;;6.88;5.93;;;16.60;83.20;;;;;;5113198;28;20086;-54
2022/06/03 00:05:31;;;;;;;6.28;5.60;;;16.60;83.50;;;;;;5112640;28;20035;-55
2022/06/03 00:08:32;;;;;;;7.22;4.85;;;16.60;83.70;;;;;;5088741;28;20514;-58
2022/06/03 00:12:01;;;;;;;5.88;5.25;;;16.60;83.90;;;;;;5080077;28;20035;-55
2022/06/03 00:15:05;;;;;;;5.38;4.88;;;16.60;84.30;;;;;;5082401;28;20082;-56
2022/06/03 00:17:55;;;;;;;6.57;5.50;;;16.40;84.90;;;;;;5112839;28;20042;-53
2022/06/03 00:20:59;;;;;;;6.03;5.43;;;16.20;85.40;;;;;;5111859;28;20081;-57
2022/06/03 00:24:07;;;;;;;6.18;5.47;;;16.10;86.20;;;;;;5095017;28;20423;-55
2022/06/03 00:27:25;;;;;;;6.18;5.57;;;16.10;86.40;;;;;;5094495;28;20586;-57
2022/06/03 00:30:48;;;;;;;54.67;34.10;;;16.20;86.20;;;;;;5098430;28;20337;-53
2022/06/03 00:34:00;;;;;;;18.10;14.23;;;16.20;86.20;;;;;;5114291;28;20109;-55
2022/06/03 00:37:17;;;;;;;9.27;7.60;;;16.20;86.30;;;;;;5079973;28;20110;-55
2022/06/03 00:40:21;;;;;;;8.32;6.47;;;16.10;86.40;;;;;;5106832;28;20667;-58
2022/06/03 00:43:17;;;;;;;8.35;6.70;;;16.00;86.80;;;;;;5117361;27;20496;-54
2022/06/03 00:46:20;;;;;;;8.82;6.80;;;15.80;86.80;;;;;;5108360;28;20035;-57
2022/06/03 00:49:13;;;;;;;8.35;7.20;;;15.60;88.00;;;;;;5110613;28;20086;-57
2022/06/03 00:52:17;;;;;;;7.85;7.05;;;15.50;88.10;;;;;;5078371;28;20034;-58
2022/06/03 00:55:13;;;;;;;11.55;7.45;;;15.40;86.30;;;;;;5097278;28;20055;-53
2022/06/03 00:58:00;;;;;;;7.07;6.47;;;15.20;87.60;;;;;;5098425;28;20078;-58
2022/06/03 01:01:03;;;;;;;7.68;6.53;;;15.20;87.80;;;;;;5094276;28;20134;-56
2022/06/03 01:03:53;;;;;;;7.18;6.45;;;15.10;88.10;;;;;;5093676;28;20067;-53
2022/06/03 01:06:46;;;;;;;7.57;6.72;;;15.20;88.60;;;;;;5108364;28;20054;-54
2022/06/03 01:10:10;;;;;;;7.28;6.57;;;15.20;88.90;;;;;;5112012;28;20023;-54
2022/06/03 01:13:06;;;;;;;7.60;6.45;;;15.20;89.60;;;;;;5095295;28;20039;-55
2022/06/03 01:16:18;;;;;;;7.05;6.32;;;15.20;90.10;;;;;;5102718;28;20062;-58
2022/06/03 01:19:28;;;;;;;7.95;6.60;;;15.30;90.10;;;;;;5094156;28;20070;-56
2022/06/03 01:22:18;;;;;;;7.45;6.75;;;15.20;90.10;;;;;;5097384;28;20026;-56
2022/06/03 01:25:28;;;;;;;7.28;6.68;;;15.10;90.20;;;;;;5096649;28;20027;-54
2022/06/03 01:28:50;;;;;;;7.70;6.90;;;15.10;90.70;;;;;;5093458;28;20027;-57
2022/06/03 01:31:53;;;;;;;7.78;6.97;;;14.90;91.40;;;;;;5093448;28;20121;-53
2022/06/03 01:34:47;;;;;;;8.85;6.90;;;14.90;91.80;;;;;;5093941;28;20035;-55
2022/06/03 01:37:55;;;;;;;6.78;6.18;;;14.80;91.70;;;;;;5113626;28;20445;-55
2022/06/03 01:41:13;;;;;;;7.20;6.53;;;14.70;91.80;;;;;;5111764;28;20047;-54
2022/06/03 01:44:15;;;;;;;6.82;6.22;;;14.70;92.40;;;;;;5115720;27;20391;-56
2022/06/03 01:47:18;;;;;;;8.05;7.25;;;14.70;92.60;;;;;;5108362;28;20034;-56
2022/06/03 01:50:21;;;;;;;7.85;7.13;;;14.70;92.50;;;;;;5096074;28;20514;-57
2022/06/03 01:53:53;;;;;;;8.05;7.25;;;14.40;93.10;;;;;;5076967;28;20030;-52
2022/06/03 01:56:46;;;;;;;7.68;6.97;;;14.40;93.80;;;;;;5010193;28;20561;-54
2022/06/03 01:59:30;;;;;;;7.80;7.05;;;14.30;94.30;;;;;;5030131;28;20064;-57
2022/06/03 02:02:26;;;;;;;7.33;6.70;;;14.30;93.90;;;;;;5104586;28;20055;-53
2022/06/03 02:05:39;;;;;;;7.95;6.97;;;14.10;94.50;;;;;;5112235;28;20348;-57
2022/06/03 02:09:01;;;;;;;7.90;6.95;;;14.10;95.20;;;;;;5112737;28;20089;-56
2022/06/03 02:11:54;;;;;;;8.38;7.05;;;14.10;95.50;;;;;;5110663;27;20038;-56
2022/06/03 02:15:13;;;;;;;7.07;6.47;;;14.00;96.10;;;;;;5134025;27;20033;-57
2022/06/03 02:18:25;;;;;;;8.48;7.68;;;14.00;96.20;;;;;;5085984;28;20070;-55
2022/06/03 02:21:38;;;;;;;9.68;7.38;;;14.00;95.50;;;;;;5103983;28;20433;-55
2022/06/03 02:24:41;;;;;;;7.95;7.15;;;13.90;95.40;;;;;;5113257;28;20042;-53
2022/06/03 02:27:56;;;;;;;7.80;7.10;;;14.00;95.30;;;;;;5091994;28;20111;-54
2022/06/03 02:31:11;;;;;;;7.93;7.00;;;13.80;95.20;;;;;;5092250;28;20509;-57
2022/06/03 02:34:14;;;;;;;8.13;7.40;;;13.70;96.00;;;;;;5094835;28;20486;-57
2022/06/03 02:37:25;;;;;;;7.80;7.10;;;13.80;95.80;;;;;;5128092;27;20112;-55
2022/06/03 02:40:41;;;;;;;7.30;6.60;;;13.70;95.90;;;;;;5117219;28;20519;-55
2022/06/03 02:43:26;;;;;;;;;;;13.70;96.20;;;;;;5105663;28;20023;-55
2022/06/03 02:46:41;;;;;;;8.88;7.15;;;13.70;96.30;;;;;;5096700;28;19914;-56
2022/06/03 02:49:36;;;;;;;;;;;13.70;96.40;;;;;;5108335;28;20513;-55
2022/06/03 02:52:55;;;;;;;7.60;6.90;;;13.70;96.50;;;;;;5096174;28;20326;-56
2022/06/03 02:55:45;;;;;;;8.00;7.20;;;13.80;96.30;;;;;;5102502;28;20065;-54
2022/06/03 02:58:45;;;;;;;8.35;7.10;;;13.70;96.80;;;;;;5100371;28;20034;-57
2022/06/03 03:01:38;;;;;;;8.25;7.47;;;13.60;97.00;;;;;;5092177;28;20479;-56
2022/06/03 03:04:41;;;;;;;9.77;7.60;;;13.60;97.00;;;;;;5110324;28;20023;-54
2022/06/03 03:07:28;;;;;;;7.82;7.13;;;13.50;97.10;;;;;;5099422;28;20071;-53
2022/06/03 03:10:50;;;;;;;8.52;7.72;;;13.40;97.70;;;;;;5116469;28;20035;-54
2022/06/03 03:13:57;;;;;;;8.82;7.85;;;13.40;97.80;;;;;;5110763;28;20104;-53
2022/06/03 03:16:50;;;;;;;8.10;7.30;;;13.30;98.20;;;;;;5095242;28;20051;-56
2022/06/03 03:20:03;;;;;;;12.00;7.68;;;13.30;98.20;;;;;;5097814;28;20027;-55
2022/06/03 03:22:53;;;;;;;9.98;7.97;;;13.30;98.00;;;;;;5110485;28;20084;-57
2022/06/03 03:26:04;;;;;;;9.60;7.95;;;13.40;98.00;;;;;;5101981;28;20023;-56
2022/06/03 03:29:04;;;;;;;10.88;7.53;;;13.40;98.00;;;;;;5095333;28;20042;-55
2022/06/03 03:32:10;;;;;;;7.40;6.70;;;13.50;98.00;;;;;;5079698;28;20063;-55
2022/06/03 03:35:04;;;;;;;7.97;7.18;;;13.60;98.00;;;;;;5095763;28;20047;-56
2022/06/03 03:38:11;;;;;;;8.20;7.40;;;13.70;97.80;;;;;;5094734;28;20046;-54
2022/06/03 03:41:04;;;;;;;7.85;7.05;;;13.80;97.70;;;;;;5111081;28;20093;-53
2022/06/03 03:48:03;;;;;;;7.68;6.97;;;13.70;97.60;;;;;;5031075;28;20044;-55
2022/06/03 03:51:18;;;;;;;8.80;7.93;;;13.70;97.60;;;;;;5068707;28;20435;-56
2022/06/03 03:54:21;;;;;;;7.90;7.20;;;13.70;97.50;;;;;;5097508;28;20047;-56
2022/06/03 03:57:39;;;;;;;7.57;6.85;;;13.60;97.70;;;;;;5097050;28;20105;-56
2022/06/03 04:01:03;;;;;;;8.55;7.63;;;13.70;97.60;;;;;;5101222;28;20560;-56
2022/06/03 04:04:04;;;;;;;8.55;7.70;;;13.70;97.50;;;;;;5111824;28;20119;-55
2022/06/03 04:07:10;;;;;;;9.10;7.65;;;13.80;97.30;;;;;;5114069;28;20085;-55
2022/06/03 04:10:32;;;;;;;12.40;10.40;;;13.80;97.30;;;;;;5100293;28;20111;-54
2022/06/03 04:13:43;;;;;;;15.35;11.32;;;13.80;97.30;;;;;;5110423;28;20078;-55
2022/06/03 04:17:04;;;;;;;10.88;9.73;;;13.80;97.60;;;;;;5076837;28;20039;-53
2022/06/03 04:20:52;;;;;;;8.88;7.95;;;13.90;97.00;;;;;;5093991;28;20365;-58
2022/06/03 04:27:29;;;;;;;9.38;8.57;;;13.80;97.10;;;;;;5109646;28;20509;-53
2022/06/03 04:30:19;;;;;;;10.90;8.57;;;13.80;97.20;;;;;;5094719;28;20106;-56
2022/06/03 04:33:25;;;;;;;16.85;8.93;;;13.80;97.10;;;;;;5098395;28;20066;-57
2022/06/03 04:36:32;;;;;;;10.90;8.52;;;13.90;97.00;;;;;;5114322;28;20084;-55
2022/06/03 04:39:35;;;;;;;8.70;7.63;;;13.90;96.80;;;;;;5100768;28;20059;-55
2022/06/03 04:42:37;;;;;;;8.63;7.72;;;13.90;96.90;;;;;;5108360;28;20085;-52
2022/06/03 04:46:04;;;;;;;9.80;8.80;;;14.00;97.10;;;;;;5108352;28;20097;-58
2022/06/03 04:49:14;;;;;;;9.45;8.50;;;14.10;97.10;;;;;;5093197;28;20109;-58
2022/06/03 04:52:36;;;;;;;10.63;8.02;;;14.10;97.00;;;;;;5114576;28;20073;-55
2022/06/03 04:55:42;;;;;;;11.13;9.90;;;14.20;96.90;;;;;;5093791;28;20062;-53
2022/06/03 04:58:54;;;;;;;;;;;14.30;96.80;;;;;;5095268;28;20082;-56
2022/06/03 05:02:14;;;;;;;10.90;9.63;;;14.30;96.20;;;;;;5107108;28;19961;-56
2022/06/03 05:05:17;;;;;;;13.80;10.55;;;14.50;95.70;;;;;;5112982;28;20034;-54
2022/06/03 05:08:43;;;;;;;13.45;11.75;;;14.60;95.20;;;;;;5076629;28;20094;-54
2022/06/03 05:11:45;;;;;;;12.10;10.90;;;14.50;94.60;;;;;;5098437;28;20030;-57
2022/06/03 05:14:55;;;;;;;12.45;11.15;;;14.50;94.50;;;;;;5114397;28;20038;-56
2022/06/03 05:17:39;;;;;;;10.63;9.48;;;14.70;94.10;;;;;;5084155;28;20085;-56
2022/06/03 05:20:45;;;;;;;9.93;9.03;;;14.70;93.80;;;;;;5094747;28;20395;-54
2022/06/03 05:24:00;;;;;;;10.25;9.23;;;14.80;93.60;;;;;;5095972;28;20541;-56
2022/06/03 05:27:14;;;;;;;11.02;9.98;;;15.00;93.10;;;;;;5098901;28;20049;-57
2022/06/03 05:30:17;;;;;;;10.50;9.45;;;15.10;93.00;;;;;;5113482;28;20038;-56
2022/06/03 05:33:39;;;;;;;15.65;11.90;;;15.20;92.70;;;;;;5096952;28;20035;-55
2022/06/03 05:36:51;;;;;;;10.95;9.93;;;15.20;92.70;;;;;;5093442;28;20133;-56
2022/06/03 05:40:06;;;;;;;9.93;8.93;;;15.40;92.40;;;;;;5093079;28;20513;-55
2022/06/03 05:42:53;;;;;;;9.50;8.60;;;15.50;92.10;;;;;;5107330;27;20094;-54
2022/06/03 05:45:59;;;;;;;13.93;8.65;;;15.40;92.00;;;;;;5134135;27;20038;-54
2022/06/03 05:49:04;;;;;;;10.73;8.73;;;15.50;91.90;;;;;;5113442;28;20037;-55
2022/06/03 05:52:01;;;;;;;;;;;15.60;91.80;;;;;;5106020;28;20031;-56
2022/06/03 05:55:07;;;;;;;27.15;11.30;;;15.60;91.50;;;;;;5093639;28;19988;-54
2022/06/03 05:57:51;;;;;;;24.35;9.32;;;15.70;91.60;;;;;;5077672;28;20475;-55
2022/06/03 06:00:43;;;;;;;12.90;8.47;;;15.90;91.60;;;;;;5098269;28;20110;-53
2022/06/03 06:03:44;;;;;;;19.70;8.70;;;15.90;91.50;;;;;;5097821;28;20803;-55
2022/06/03 06:07:13;;;;;;;11.98;7.32;;;16.20;91.40;;;;;;5111890;28;20027;-52
2022/06/03 06:10:17;;;;;;;10.20;8.52;;;16.30;91.20;;;;;;5071599;28;20046;-55
2022/06/03 06:13:20;;;;;;;8.90;8.10;;;16.30;91.00;;;;;;5093873;28;20039;-54
2022/06/03 06:16:21;;;;;;;8.60;7.80;;;16.30;91.20;;;;;;5101230;28;20399;-56
2022/06/03 06:19:24;;;;;;;10.30;7.82;;;16.40;91.10;;;;;;5111698;28;20060;-52
2022/06/03 06:22:17;;;;;;;8.82;7.80;;;16.50;91.10;;;;;;5104368;28;20119;-55
2022/06/03 06:25:22;;;;;;;9.23;7.32;;;16.60;91.00;;;;;;5092736;28;20027;-55
2022/06/03 06:28:24;;;;;;;14.07;10.20;;;16.70;91.10;;;;;;5093292;28;20507;-57
2022/06/03 06:31:32;;;;;;;11.38;8.98;;;16.90;90.80;;;;;;5113184;27;20042;-59
2022/06/03 06:34:38;;;;;;;11.90;7.78;;;16.90;90.80;;;;;;5092720;28;20034;-53
2022/06/03 06:37:59;;;;;;;8.05;7.35;;;17.00;90.70;;;;;;5089818;28;20038;-57
2022/06/03 06:41:13;;;;;;;8.95;7.20;;;17.20;90.50;;;;;;5115894;28;20027;-56
2022/06/03 06:44:14;;;;;;;7.97;6.55;;;17.30;90.20;;;;;;5102873;28;20521;-55
2022/06/03 06:47:14;;;;;;;8.05;7.35;;;17.40;89.70;;;;;;5116550;28;20092;-55
2022/06/03 06:50:10;;;;;;;9.60;6.63;;;17.50;89.70;;;;;;5104879;28;20135;-58
2022/06/03 06:53:16;;;;;;;7.18;6.00;;;17.60;88.00;;;;;;5110559;27;20031;-58
2022/06/03 06:56:24;;;;;;;9.55;6.15;;;17.70;88.50;;;;;;5111139;28;20042;-57
2022/06/03 06:59:31;;;;;;;6.10;5.40;;;17.80;87.80;;;;;;5121768;27;20054;-54
2022/06/03 07:02:27;;;;;;;6.70;6.03;;;17.90;87.50;;;;;;5126964;27;20127;-53
2022/06/03 07:05:29;;;;;;;8.18;5.80;;;17.90;87.20;;;;;;5118475;27;20118;-55
2022/06/03 07:08:23;;;;;;;7.68;6.10;;;17.90;86.90;;;;;;5117105;28;20096;-56
2022/06/03 07:11:12;;;;;;;7.82;6.22;;;18.00;86.30;;;;;;5107993;28;20086;-57
2022/06/03 07:14:03;;;;;;;12.95;7.63;;;18.10;85.40;;;;;;5105973;27;20042;-52
2022/06/03 07:20:05;;;;;;;7.68;5.57;;;18.20;84.50;;;;;;5107904;28;20023;-53
2022/06/03 07:23:03;;;;;;;8.85;4.95;;;18.20;84.20;;;;;;5091203;28;20046;-54
2022/06/03 07:25:56;;;;;;;7.32;4.82;;;18.30;85.00;;;;;;5115832;28;20080;-55
2022/06/03 07:29:00;;;;;;;11.80;6.10;;;18.60;84.00;;;;;;5115879;28;20030;-57
2022/06/03 07:32:00;;;;;;;12.80;6.13;;;18.60;83.00;;;;;;5100641;28;20030;-56
2022/06/03 07:35:01;;;;;;;6.80;5.03;;;18.70;82.60;;;;;;5098565;28;20506;-56
2022/06/03 07:38:10;;;;;;;6.15;4.57;;;18.60;81.70;;;;;;5097791;28;20045;-55
2022/06/03 07:41:05;;;;;;;5.13;4.63;;;18.70;81.70;;;;;;5109013;28;20078;-57
2022/06/03 07:44:00;;;;;;;9.77;5.00;;;18.90;81.10;;;;;;5114487;27;20402;-59
2022/06/03 07:47:00;;;;;;;8.35;5.25;;;18.90;80.90;;;;;;5116209;27;20058;-55
2022/06/03 07:49:53;;;;;;;7.35;4.95;;;18.90;80.70;;;;;;5100819;28;20168;-56
2022/06/03 07:52:46;;;;;;;6.22;5.63;;;18.90;80.40;;;;;;5112562;28;20059;-54
2022/06/03 07:55:31;;;;;;;11.88;4.80;;;19.00;80.30;;;;;;5111232;28;20030;-57
2022/06/03 07:58:17;;;;;;;5.60;3.80;;;19.00;80.30;;;;;;5110421;28;20034;-55
2022/06/03 08:01:01;;;;;;;7.05;4.55;;;19.10;79.30;;;;;;5112368;28;20405;-55
2022/06/03 08:03:47;;;;;;;6.28;4.65;;;19.20;79.10;;;;;;5113584;28;20030;-57
2022/06/03 08:12:40;;;;;;;4.18;3.78;;;19.60;78.70;;;;;;5101990;28;20039;-57
2022/06/03 08:15:35;;;;;;;5.45;4.32;;;19.80;77.80;;;;;;5077907;28;20153;-56
2022/06/03 08:18:21;;;;;;;7.00;4.05;;;19.80;77.10;;;;;;5096691;28;20062;-56
2022/06/03 08:21:09;;;;;;;5.97;3.80;;;19.70;76.50;;;;;;5099650;28;20089;-58
2022/06/03 08:23:55;;;;;;;5.07;3.95;;;19.80;76.60;;;;;;5113245;28;20027;-56
2022/06/03 08:26:43;;;;;;;5.65;3.63;;;19.90;77.10;;;;;;5092567;28;20038;-57
2022/06/03 08:29:46;;;;;;;8.25;4.40;;;20.10;76.60;;;;;;5104709;28;20379;-55
2022/06/03 08:32:37;;;;;;;5.78;3.67;;;20.30;76.10;;;;;;5078845;28;20046;-57
2022/06/03 08:35:25;;;;;;;5.63;3.70;;;20.30;75.60;;;;;;5104304;28;20109;-53
2022/06/03 08:38:25;;;;;;;6.72;4.30;;;20.30;76.20;;;;;;5077010;28;20068;-53
2022/06/03 08:41:44;;;;;;;6.10;3.78;;;20.30;75.60;;;;;;5110802;28;20389;-57
2022/06/03 08:44:42;;;;;;;10.70;3.88;;;20.50;74.50;;;;;;5100886;28;20109;-55
2022/06/03 08:47:47;;;;;;;3.78;3.28;;;20.50;73.40;;;;;;5112283;28;20035;-55
2022/06/03 08:50:47;;;;;;;6.53;3.35;;;20.70;73.10;;;;;;5111622;28;20048;-58
2022/06/03 08:53:57;;;;;;;4.45;3.60;;;20.80;73.00;;;;;;5112934;28;20039;-60
2022/06/03 08:56:46;;;;;;;6.25;3.80;;;20.90;72.30;;;;;;5112253;28;20039;-57
2022/06/03 08:59:38;;;;;;;3.72;3.38;;;20.80;72.80;;;;;;5112733;28;20101;-55
2022/06/03 09:02:54;;;;;;;3.60;3.28;;;20.80;72.60;;;;;;5110272;28;20332;-53
2022/06/03 09:05:43;;;;;;;;;;;20.90;72.40;;;;;;5111438;28;20081;-57
2022/06/03 09:08:38;;;;;;;4.50;3.25;;;20.90;72.40;;;;;;5112893;28;19928;-56
2022/06/03 09:11:30;;;;;;;6.40;3.55;;;21.10;72.00;;;;;;5114959;28;20030;-56
2022/06/03 09:14:22;;;;;;;4.50;3.38;;;21.20;72.20;;;;;;5115215;28;20105;-58
2022/06/03 09:17:34;;;;;;;4.57;3.33;;;21.50;72.00;;;;;;5111713;28;20034;-55
2022/06/03 09:20:25;;;;;;;5.85;3.78;;;21.60;71.70;;;;;;5112472;28;20031;-57
2022/06/03 09:23:19;;;;;;;5.38;3.47;;;21.60;71.10;;;;;;5112671;28;20101;-56
2022/06/03 09:26:04;;;;;;;3.85;3.47;;;21.70;71.00;;;;;;5111277;28;20038;-56
2022/06/03 09:28:50;;;;;;;9.57;4.03;;;21.70;70.10;;;;;;5101175;27;20047;-57
2022/06/03 09:31:36;;;;;;;6.40;3.90;;;21.90;70.20;;;;;;5104562;27;20053;-57
2022/06/03 09:34:31;;;;;;;7.28;4.07;;;21.90;70.40;;;;;;5111417;27;20131;-58
2022/06/03 09:37:20;;;;;;;3.53;3.22;;;21.90;70.60;;;;;;5109765;27;20034;-53
2022/06/03 09:40:12;;;;;;;8.77;3.47;;;21.70;70.00;;;;;;5120723;27;20100;-57
2022/06/03 09:43:14;;;;;;;6.35;3.35;;;21.90;70.30;;;;;;5097183;28;20493;-59
2022/06/03 09:46:01;;;;;;;5.05;3.40;;;22.20;70.80;;;;;;5120473;27;20119;-59
2022/06/03 09:48:45;;;;;;;4.30;3.10;;;22.30;69.60;;;;;;5117597;27;20414;-58
2022/06/03 09:54:41;;;;;;;4.80;3.13;;;22.50;69.40;;;;;;5104153;28;20274;-57
2022/06/03 09:57:36;;;;;;;6.50;3.30;;;22.60;68.60;;;;;;5097460;28;20027;-56
2022/06/03 10:00:24;;;;;;;3.78;2.90;;;22.60;68.70;;;;;;5113754;28;20073;-56
2022/06/03 10:03:10;;;;;;;6.25;3.35;;;22.70;67.80;;;;;;5113370;28;20107;-57
2022/06/03 10:05:57;;;;;;;5.28;3.30;;;22.60;67.50;;;;;;5112992;28;20042;-54
2022/06/03 10:15:37;;;;;;;3.65;3.22;;;23.00;67.40;;;;;;5112757;28;20129;-56
2022/06/03 10:17:55;;;;;;;4.23;3.00;;;23.20;66.20;;;;;;5109300;28;20034;-51
2022/06/03 10:20:39;;;;;;;4.47;3.35;;;23.30;66.10;;;;;;5095461;28;20303;-56
2022/06/03 10:23:28;;;;;;;5.65;3.35;;;23.40;66.40;;;;;;5097176;28;20078;-58
2022/06/03 10:26:34;;;;;;;5.28;3.30;;;23.20;65.10;;;;;;5109756;28;20026;-54
2022/06/03 10:29:21;;;;;;;3.38;3.08;;;23.10;66.00;;;;;;5111272;28;20030;-56
2022/06/03 10:32:07;;;;;;;6.40;3.03;;;23.20;65.90;;;;;;5111967;28;20050;-52
2022/06/03 10:35:04;;;;;;;5.05;3.15;;;23.40;67.00;;;;;;5112213;28;20107;-55
2022/06/03 10:37:57;;;;;;;7.07;3.50;;;23.40;65.00;;;;;;5111974;28;20049;-59
2022/06/03 10:40:46;;;;;;;4.95;3.45;;;23.30;65.50;;;;;;5111204;28;20128;-56
2022/06/03 10:43:33;;;;;;;7.00;3.35;;;23.30;65.00;;;;;;5114435;28;20018;-57
2022/06/03 10:46:19;;;;;;;9.50;3.45;;;23.40;65.20;;;;;;5113197;28;20038;-57
2022/06/03 10:49:11;;;;;;;6.20;3.22;;;23.50;65.40;;;;;;5112170;28;20031;-53
2022/06/03 11:01:22;;;;;;;6.07;3.50;;;23.70;64.80;;;;;;5112905;28;20077;-55
2022/06/03 11:04:06;;;;;;;5.97;3.50;;;23.70;64.10;;;;;;5113576;28;20084;-54
2022/06/03 11:06:50;;;;;;;6.97;3.55;;;23.70;65.10;;;;;;5096294;28;20111;-54
2022/06/03 11:09:36;;;;;;;6.22;3.53;;;23.80;64.10;;;;;;5113512;28;20614;-53
2022/06/03 11:12:26;;;;;;;5.07;3.50;;;23.90;63.70;;;;;;5113713;28;20031;-58
2022/06/03 11:15:33;;;;;;;7.75;3.33;;;24.00;63.40;;;;;;5112247;28;20027;-55
2022/06/03 11:18:25;;;;;;;8.02;3.65;;;23.90;62.70;;;;;;5112131;28;20050;-57
2022/06/03 11:21:20;;;;;;;9.50;3.47;;;23.80;63.10;;;;;;5111908;28;20422;-59
2022/06/03 11:24:05;;;;;;;4.30;3.10;;;23.70;63.20;;;;;;5112171;28;20026;-58
2022/06/03 11:26:49;;;;;;;4.75;3.33;;;23.80;63.70;;;;;;5113899;28;20054;-57
2022/06/03 11:29:38;;;;;;;3.90;3.20;;;24.00;63.80;;;;;;5116122;28;20058;-60
2022/06/03 11:32:24;;;;;;;4.47;3.20;;;24.20;63.10;;;;;;5116433;28;20094;-57
2022/06/03 11:35:41;;;;;;;6.00;3.10;;;24.30;62.90;;;;;;5100163;28;20046;-57
2022/06/03 11:38:37;;;;;;;5.60;3.55;;;24.30;62.90;;;;;;5115580;28;20054;-59
2022/06/03 11:41:26;;;;;;;4.50;3.22;;;24.10;62.40;;;;;;5115484;28;20026;-60
2022/06/03 11:44:31;;;;;;;5.50;3.28;;;24.20;62.70;;;;;;5118863;27;20034;-55
2022/06/03 11:47:22;;;;;;;3.70;3.05;;;24.10;62.70;;;;;;5120434;27;20520;-54
2022/06/03 11:50:09;;;;;;;3.95;3.00;;;24.10;62.60;;;;;;5121096;27;20077;-59
2022/06/03 11:52:55;;;;;;;6.72;3.13;;;24.20;62.60;;;;;;5137084;27;20057;-59
2022/06/03 11:55:39;;;;;;;3.75;2.92;;;24.50;62.30;;;;;;5126457;27;20042;-62
2022/06/03 11:58:39;;;;;;;4.68;3.10;;;24.60;62.20;;;;;;5111970;28;20026;-62
2022/06/03 12:01:52;;;;;;;6.88;3.50;;;24.80;62.00;;;;;;5114384;28;20027;-63
2022/06/03 12:04:59;;;;;;;5.55;4.13;;;24.80;61.30;;;;;;5114739;28;20073;-54
2022/06/03 12:08:17;;;;;;;10.35;5.97;;;25.00;61.50;;;;;;5099761;28;20054;-57
2022/06/03 12:14:38;;;;;;;3.92;3.30;;;24.60;61.10;;;;;;5114988;28;20050;-58
2022/06/03 12:17:32;;;;;;;10.25;3.85;;;24.40;61.20;;;;;;5098547;28;20035;-57
2022/06/03 12:20:36;;;;;;;7.00;3.20;;;24.60;61.40;;;;;;5115407;28;20093;-58
2022/06/03 12:23:20;;;;;;;3.80;3.25;;;24.90;61.80;;;;;;5116106;28;20035;-55
2022/06/03 12:26:20;;;;;;;5.93;3.33;;;25.30;61.20;;;;;;5115420;28;20125;-59
2022/06/03 12:29:17;;;;;;;6.20;3.05;;;25.60;60.60;;;;;;5101576;28;20039;-56
2022/06/03 12:32:21;;;;;;;3.72;2.90;;;25.80;59.90;;;;;;5099673;28;20038;-57
2022/06/03 12:35:47;;;;;;;3.50;3.03;;;25.70;59.50;;;;;;5113858;28;20039;-54
2022/06/03 12:38:43;;;;;;;6.50;3.47;;;25.50;59.60;;;;;;5114038;28;20137;-54
2022/06/03 12:41:45;;;;;;;4.03;2.88;;;25.60;59.60;;;;;;5098121;28;20043;-57
2022/06/03 12:44:51;;;;;;;4.25;3.30;;;25.90;60.10;;;;;;5102160;28;20693;-60
2022/06/03 12:47:35;;;;;;;5.30;3.70;;;26.30;59.10;;;;;;5114224;28;20031;-54
2022/06/03 12:50:34;;;;;;;5.15;3.20;;;26.30;58.60;;;;;;5115424;28;20081;-57
2022/06/03 12:53:28;;;;;;;8.43;4.93;;;26.60;59.20;;;;;;5115854;28;20034;-53
2022/06/03 12:56:33;;;;;;;4.60;3.50;;;26.80;58.40;;;;;;5116540;28;20222;-54
2022/06/03 12:59:52;;;;;;;13.57;5.53;;;26.70;57.40;;;;;;5116361;28;20031;-58
2022/06/03 13:02:47;;;;;;;5.93;4.60;;;26.80;58.60;;;;;;5116373;28;20497;-55
2022/06/03 13:05:42;;;;;;;5.25;3.05;;;27.10;58.40;;;;;;5114584;28;20058;-56
2022/06/03 13:08:29;;;;;;;5.03;3.00;;;27.30;57.20;;;;;;5114904;28;20057;-57
2022/06/03 13:11:20;;;;;;;5.55;3.25;;;27.30;57.30;;;;;;5114308;28;20049;-58
2022/06/03 13:14:27;;;;;;;3.42;3.10;;;27.30;57.60;;;;;;5115307;28;20101;-58
2022/06/03 13:17:50;;;;;;;4.68;3.22;;;27.60;57.00;;;;;;5113714;28;20108;-55
2022/06/03 13:20:47;;;;;;;5.60;3.58;;;27.80;56.00;;;;;;5114545;28;20382;-56
2022/06/03 13:23:36;;;;;;;5.30;3.00;;;28.10;56.10;;;;;;5115594;28;20062;-58
2022/06/03 13:26:23;;;;;;;6.20;3.30;;;28.20;55.90;;;;;;5113229;28;20520;-57
2022/06/03 13:29:13;;;;;;;3.40;3.10;;;28.20;55.70;;;;;;5114977;28;20051;-57
2022/06/03 13:32:00;;;;;;;5.38;3.03;;;28.30;55.40;;;;;;5113477;28;20405;-55
2022/06/03 13:34:45;;;;;;;3.90;3.20;;;28.30;55.70;;;;;;5113528;28;20089;-57
2022/06/03 13:37:30;;;;;;;5.07;3.00;;;28.40;55.00;;;;;;5113620;28;20042;-58
2022/06/03 13:40:30;;;;;;;7.35;3.25;;;28.50;55.50;;;;;;5113721;28;20030;-56
2022/06/03 13:43:21;;;;;;;3.97;3.45;;;28.50;55.20;;;;;;5097832;27;20081;-57
2022/06/03 13:46:10;;;;;;;4.38;3.50;;;28.50;56.10;;;;;;5114381;27;20069;-56
2022/06/03 13:49:02;;;;;;;6.38;3.30;;;28.40;55.80;;;;;;5113029;28;20115;-55
2022/06/03 13:51:47;;;;;;;7.72;3.40;;;28.20;55.70;;;;;;5113718;28;20045;-53
2022/06/03 13:54:40;;;;;;;10.43;7.07;;;28.00;55.90;;;;;;5113824;28;20035;-57
2022/06/03 13:57:36;;;;;;;5.10;3.10;;;28.10;56.10;;;;;;5112674;28;20072;-57
2022/06/03 14:00:35;;;;;;;3.50;3.10;;;27.90;55.50;;;;;;5112699;28;20081;-57
2022/06/03 14:03:39;;;;;;;4.72;3.30;;;27.60;55.80;;;;;;5113307;28;20082;-57
2022/06/03 14:06:34;;;;;;;4.70;3.40;;;27.60;56.30;;;;;;5113048;28;20100;-56
2022/06/03 14:09:21;;;;;;;3.92;3.10;;;27.50;56.30;;;;;;5114427;28;20162;-57
2022/06/03 14:12:05;;;;;;;3.38;2.95;;;27.30;56.20;;;;;;5114180;28;20101;-54
2022/06/03 14:15:17;;;;;;;3.53;3.08;;;27.20;56.80;;;;;;5113414;28;20457;-59
2022/06/03 14:18:02;;;;;;;4.75;3.40;;;27.20;57.10;;;;;;5112848;28;20034;-56
2022/06/03 14:20:52;;;;;;;5.60;3.45;;;27.10;57.00;;;;;;5113127;28;20026;-56
2022/06/03 14:23:39;;;;;;;4.35;3.35;;;27.10;56.90;;;;;;5112587;28;20390;-54
2022/06/03 14:26:31;;;;;;;4.88;3.40;;;27.20;57.30;;;;;;5112271;28;20101;-54
2022/06/03 14:29:30;;;;;;;4.45;3.10;;;27.30;57.20;;;;;;5113690;28;20070;-57
2022/06/03 14:32:20;;;;;;;5.22;3.00;;;27.30;56.30;;;;;;5113618;28;20050;-55
2022/06/03 14:35:07;;;;;;;3.90;3.50;;;27.70;56.30;;;;;;5112956;28;20383;-53
2022/06/03 14:38:11;;;;;;;15.00;11.80;;;27.90;56.30;;;;;;5113781;28;20081;-59
2022/06/03 14:40:57;;;;;;;9.27;6.30;;;28.00;55.70;;;;;;5113676;28;20054;-54
2022/06/03 14:43:43;;;;;;;4.40;3.38;;;28.10;56.00;;;;;;5105664;28;20038;-57
2022/06/03 14:46:53;;;;;;;3.17;2.83;;;28.10;55.30;;;;;;5111427;28;20105;-55
2022/06/03 14:49:44;;;;;;;4.72;3.15;;;28.30;55.40;;;;;;5112773;28;20054;-57
2022/06/03 14:52:41;;;;;;;5.05;3.28;;;28.40;55.00;;;;;;5112926;28;20062;-58
2022/06/03 14:55:38;;;;;;;3.97;3.33;;;28.10;55.10;;;;;;5112683;28;20438;-53
2022/06/03 14:58:31;;;;;;;8.70;5.72;;;28.30;55.60;;;;;;5112789;28;20554;-59
2022/06/03 15:01:16;;;;;;;4.38;3.80;;;28.40;56.10;;;;;;5115973;28;20165;-55
2022/06/03 15:04:15;;;;;;;4.18;3.60;;;28.20;55.00;;;;;;5116904;28;20094;-58
2022/06/03 15:07:09;;;;;;;4.97;3.20;;;28.10;55.40;;;;;;5115598;28;20082;-57
2022/06/03 15:09:58;;;;;;;5.68;3.97;;;28.10;55.30;;;;;;5117434;28;20070;-55
2022/06/03 15:12:56;;;;;;;4.88;3.38;;;28.10;55.20;;;;;;5116727;28;20019;-55
2022/06/03 15:15:40;;;;;;;5.25;3.50;;;27.90;55.50;;;;;;5115248;28;20390;-55
2022/06/03 15:18:26;;;;;;;5.60;3.30;;;27.60;55.40;;;;;;5116514;28;20038;-57
2022/06/03 15:21:20;;;;;;;5.03;3.92;;;27.70;56.30;;;;;;5115985;28;20042;-58
2022/06/03 15:24:06;;;;;;;;;;;27.70;55.60;;;;;;5116076;28;20382;-55
2022/06/03 15:26:52;;;;;;;3.90;3.08;;;27.80;55.70;;;;;;5115683;28;19927;-58
2022/06/03 15:29:37;;;;;;;4.05;3.17;;;28.30;55.40;;;;;;5116769;28;20077;-55
2022/06/03 15:32:22;;;;;;;4.40;3.47;;;28.90;54.90;;;;;;5116749;28;20066;-56
2022/06/03 15:35:10;;;;;;;5.95;3.33;;;29.30;54.10;;;;;;5116940;28;20085;-56
2022/06/03 15:37:58;;;;;;;4.63;3.33;;;29.30;53.90;;;;;;5116987;28;20118;-54
2022/06/03 15:40:54;;;;;;;6.80;3.28;;;29.20;54.20;;;;;;5116727;28;20549;-52
2022/06/03 15:43:45;;;;;;;4.40;3.22;;;28.80;54.10;;;;;;5111927;28;20391;-51
2022/06/03 15:46:31;;;;;;;5.75;3.40;;;28.60;53.80;;;;;;5115658;28;20513;-49
2022/06/03 15:49:15;;;;;;;5.32;3.47;;;28.40;53.90;;;;;;5100374;28;20091;-57
2022/06/03 15:52:00;;;;;;;4.68;3.10;;;28.40;54.30;;;;;;5116265;28;20034;-55
2022/06/03 15:54:55;;;;;;;3.45;3.10;;;28.40;54.50;;;;;;5116004;28;20039;-55
2022/06/03 15:57:42;;;;;;;6.07;3.30;;;28.50;54.10;;;;;;5116159;28;20086;-53
2022/06/03 16:00:41;;;;;;;3.60;3.22;;;28.70;53.40;;;;;;5116337;28;20046;-51
2022/06/03 16:03:45;;;;;;;3.50;3.20;;;29.10;53.90;;;;;;5116006;28;20069;-56
2022/06/03 16:06:39;;;;;;;7.45;3.50;;;29.70;53.20;;;;;;5115592;28;20035;-55
2022/06/03 16:09:41;;;;;;;3.92;2.95;;;30.00;52.50;;;;;;5116086;28;20034;-52